Time;durP1;ratioP1;P1;durP2;ratioP2;P2;SDS_P1;SDS_P2;PMS_P1;PMS_P2;Temp;Humidity;BMP_temperature;BMP_pressure;BME280_temperature;BME280_humidity;BME280_pressure;Samples;Min_cycle;Max_cycle;Signal;HPM_P1;HPM_P2
2023/10/15 00:01:50;;;;;;;24.65;7.38;;;;;;;15.59;53.79;94989.03;5014298;28;20477;-82
2023/10/15 00:04:16;;;;;;;18.58;6.68;;;;;;;15.79;54.30;95005.28;5017694;28;20046;-83
2023/10/15 00:06:41;;;;;;;15.57;6.80;;;;;;;15.27;54.38;94947.38;5022806;28;20588;-82
2023/10/15 00:09:07;;;;;;;23.98;8.25;;;;;;;15.16;54.60;94930.06;5044450;28;20120;-81
2023/10/15 00:11:33;;;;;;;18.27;7.20;;;;;;;15.04;54.35;94898.56;5020495;28;20136;-82
2023/10/15 00:13:59;;;;;;;16.95;7.30;;;;;;;15.67;54.36;94998.97;5017551;28;20038;-82
2023/10/15 00:16:25;;;;;;;18.20;6.88;;;;;;;15.61;54.19;94984.97;5017941;28;20512;-82
2023/10/15 00:18:51;;;;;;;21.23;7.32;;;;;;;15.41;54.14;94956.06;5016872;28;20084;-81
2023/10/15 00:21:17;;;;;;;22.13;7.32;;;;;;;15.59;54.52;94979.13;5015714;28;20045;-82
2023/10/15 00:23:44;;;;;;;15.93;7.25;;;;;;;15.66;54.76;94994.72;5016258;28;20038;-82
2023/10/15 00:26:12;;;;;;;17.05;7.28;;;;;;;15.69;54.57;94997.56;5010417;28;20052;-82
2023/10/15 00:28:38;;;;;;;15.18;7.88;;;;;;;15.59;54.66;94989.81;5013828;28;20121;-82
2023/10/15 00:31:08;;;;;;;14.80;7.45;;;;;;;15.14;54.69;94929.56;5015228;28;20042;-82
2023/10/15 00:33:34;;;;;;;22.23;8.05;;;;;;;15.10;55.50;94955.31;5014328;28;20041;-82
2023/10/15 00:35:59;;;;;;;15.55;7.38;;;;;;;14.94;55.56;94917.53;5013536;28;20076;-81
2023/10/15 00:38:25;;;;;;;18.63;7.15;;;;;;;15.19;55.64;94946.25;5014868;28;20045;-82
2023/10/15 00:41:00;;;;;;;16.23;7.75;;;;;;;15.46;55.43;94996.03;5014560;28;20037;-82
2023/10/15 00:43:26;;;;;;;17.58;7.68;;;;;;;15.29;55.24;94964.69;5013801;28;20049;-82
2023/10/15 00:45:52;;;;;;;14.82;7.38;;;;;;;15.21;55.73;94962.75;5013658;28;20051;-82
2023/10/15 00:48:24;;;;;;;16.50;8.00;;;;;;;15.12;56.23;94979.81;5015213;28;20128;-82
2023/10/15 00:50:51;;;;;;;17.15;7.18;;;;;;;15.16;56.24;94984.28;5013711;28;20042;-81
2023/10/15 00:53:27;;;;;;;15.13;7.10;;;;;;;15.05;56.24;94957.03;5015569;28;20464;-82
2023/10/15 00:55:54;;;;;;;14.05;7.40;;;;;;;15.28;55.78;94989.03;5013631;28;20045;-82
2023/10/15 01:03:51;;;;;;;13.73;7.65;;;;;;;14.48;56.29;94901.91;5015558;28;20042;-82
2023/10/15 01:06:43;;;;;;;18.77;7.38;;;;;;;14.94;56.40;94952.25;5030511;28;20034;-82
2023/10/15 01:09:09;;;;;;;20.27;7.60;;;;;;;14.30;56.71;94879.59;5014776;28;20046;-82
2023/10/15 01:11:44;;;;;;;20.90;8.43;;;;;;;14.80;57.50;94972.91;5014469;28;20563;-77
2023/10/15 01:14:10;;;;;;;18.77;8.43;;;;;;;14.90;57.12;94970.75;5019780;28;20068;-76
2023/10/15 01:16:38;;;;;;;17.90;7.72;;;;;;;14.62;57.05;94911.41;5019533;28;20058;-77
2023/10/15 01:19:18;;;;;;;20.50;8.90;;;;;;;15.02;57.56;94970.22;5036551;28;20042;-76
2023/10/15 01:21:53;;;;;;;21.40;7.95;;;;;;;14.97;57.16;94959.66;5021432;28;20042;-77
2023/10/15 01:24:19;;;;;;;21.50;8.82;;;;;;;15.15;56.87;94966.66;5023703;28;20041;-77
2023/10/15 01:26:59;;;;;;;18.85;7.97;;;;;;;15.18;56.42;94967.94;5023786;28;20034;-77
2023/10/15 01:29:27;;;;;;;21.23;8.63;;;;;;;14.91;56.78;94934.16;5020881;28;20038;-77
2023/10/15 01:32:03;;;;;;;21.58;7.95;;;;;;;15.09;56.35;94945.75;5021486;28;20063;-76
2023/10/15 01:34:30;;;;;;;21.02;7.60;;;;;;;15.20;56.51;94971.88;5019888;28;20068;-77
2023/10/15 01:36:59;;;;;;;25.92;9.00;;;;;;;15.09;56.01;94948.41;5020819;28;20536;-77
2023/10/15 01:39:45;;;;;;;16.40;7.63;;;;;;;14.84;56.27;94910.59;5019069;28;20041;-77
2023/10/15 01:42:31;;;;;;;26.80;8.82;;;;;;;15.01;57.09;94971.31;5018895;28;20038;-77
2023/10/15 01:45:13;;;;;;;22.27;8.07;;;;;;;14.94;56.77;94949.59;5023744;28;20527;-78
2023/10/15 01:50:23;;;;;;;20.67;8.15;;;;;;;14.97;56.92;94941.75;5024856;28;20034;-77
2023/10/15 01:52:54;;;;;;;21.55;8.68;;;;;;;14.94;56.44;94939.69;5024795;28;20137;-78
2023/10/15 01:55:21;;;;;;;15.95;8.73;;;;;;;14.72;56.55;94910.38;5024423;28;20145;-77
2023/10/15 01:57:46;;;;;;;14.18;7.70;;;;;;;14.81;56.55;94929.06;5024576;28;20038;-77
2023/10/15 02:00:17;;;;;;;17.65;7.85;;;;;;;14.91;56.77;94950.97;5024203;28;20065;-77
2023/10/15 02:02:48;;;;;;;17.08;8.95;;;;;;;14.69;56.84;94902.97;5023361;28;20053;-77
2023/10/15 02:05:30;;;;;;;19.83;8.57;;;;;;;14.85;56.79;94936.19;5024557;28;20041;-76
2023/10/15 02:07:56;;;;;;;17.63;8.02;;;;;;;14.75;57.44;94936.44;5022190;28;20038;-76
2023/10/15 02:10:22;;;;;;;24.30;7.85;;;;;;;14.53;57.09;94901.75;5022068;28;20069;-76
2023/10/15 02:12:59;;;;;;;17.17;7.65;;;;;;;14.68;57.06;94923.53;5039880;28;20034;-77
2023/10/15 02:15:31;;;;;;;22.38;7.93;;;;;;;14.76;56.92;94938.00;5024486;28;20052;-77
2023/10/15 02:17:59;;;;;;;14.93;8.07;;;;;;;14.87;56.97;94952.69;5024090;28;20489;-77
2023/10/15 02:23:09;;;;;;;17.73;8.57;;;;;;;14.63;58.04;94949.56;5013970;28;20040;-76
2023/10/15 02:25:47;;;;;;;;;;;;;;;14.72;58.00;94973.63;5013323;28;20111;-76
2023/10/15 02:28:25;;;;;;;24.58;8.80;;;;;;;14.30;57.57;94899.06;5013425;28;19913;-76
2023/10/15 02:33:30;;;;;;;23.67;8.63;;;;;;;14.28;57.97;94903.13;5012854;28;20512;-76
2023/10/15 02:35:59;;;;;;;16.58;8.23;;;;;;;14.47;58.06;94943.78;5012745;28;20038;-76
2023/10/15 02:38:34;;;;;;;25.38;9.23;;;;;;;14.65;58.10;94974.03;5012407;28;20046;-76
2023/10/15 02:41:04;;;;;;;29.27;8.93;;;;;;;14.08;58.48;94914.25;5027540;28;20064;-77
2023/10/15 02:43:40;;;;;;;15.50;8.38;;;;;;;14.10;59.11;94934.22;5010990;28;20046;-76
2023/10/15 02:46:21;;;;;;;26.92;8.90;;;;;;;14.01;58.59;94913.91;5012644;28;20072;-76
2023/10/15 02:48:48;;;;;;;25.23;8.98;;;;;;;14.15;58.74;94943.97;5011181;28;20445;-76
2023/10/15 02:51:17;;;;;;;26.40;9.43;;;;;;;13.85;59.14;94892.91;5011426;28;20050;-76
2023/10/15 02:53:50;;;;;;;25.30;9.25;;;;;;;14.29;59.34;94974.84;5013420;28;20045;-76
2023/10/15 02:56:17;;;;;;;25.75;8.65;;;;;;;14.10;59.00;94942.22;5012395;28;20123;-76
2023/10/15 02:58:44;;;;;;;24.05;9.45;;;;;;;14.35;59.00;94970.19;5011092;28;20382;-76
2023/10/15 03:01:20;;;;;;;25.58;8.65;;;;;;;14.14;59.00;94940.50;5010720;28;20040;-76
2023/10/15 03:03:50;;;;;;;17.77;8.98;;;;;;;14.01;59.29;94936.00;5010824;28;20604;-76
2023/10/15 03:06:24;;;;;;;17.17;9.32;;;;;;;14.35;58.73;94978.19;5012164;28;20504;-76
2023/10/15 03:08:51;;;;;;;26.80;9.57;;;;;;;13.88;59.56;94915.53;5010646;28;20104;-76
2023/10/15 03:11:21;;;;;;;18.67;8.88;;;;;;;14.25;59.01;94965.09;5011583;28;20596;-77
2023/10/15 03:14:00;;;;;;;26.03;9.20;;;;;;;14.24;59.02;94974.19;4994376;28;20042;-76
2023/10/15 03:16:33;;;;;;;15.63;8.02;;;;;;;13.44;59.79;94868.22;5012415;28;20053;-77
2023/10/15 03:19:23;;;;;;;18.10;9.63;;;;;;;14.02;59.84;94955.47;5026937;28;20044;-76
2023/10/15 03:21:45;;;;;;;21.80;8.60;;;;;;;14.00;59.87;94942.44;5011069;28;20037;-77
2023/10/15 03:24:14;;;;;;;21.50;8.93;;;;;;;13.58;59.70;94873.53;5010124;28;20046;-76
2023/10/15 03:26:47;;;;;;;21.85;9.25;;;;;;;13.72;59.60;94900.94;5011236;28;20052;-76
2023/10/15 03:29:15;;;;;;;21.17;9.52;;;;;;;14.08;59.29;94946.25;5010084;28;20496;-75
2023/10/15 03:31:48;;;;;;;24.63;9.20;;;;;;;13.87;59.51;94922.72;5013623;28;20034;-83
2023/10/15 03:34:16;;;;;;;14.32;7.68;;;;;;;14.12;59.50;94953.34;5015289;28;20042;-82
2023/10/15 03:36:49;;;;;;;16.92;8.18;;;;;;;13.61;59.36;94862.25;5017083;28;20034;-83
2023/10/15 03:42:09;;;;;;;20.98;8.63;;;;;;;13.90;60.17;94947.97;5016247;28;20034;-82
2023/10/15 03:44:43;;;;;;;19.73;8.55;;;;;;;14.03;60.11;94957.06;5017277;28;20057;-82
2023/10/15 03:47:09;;;;;;;18.00;8.57;;;;;;;13.94;60.49;94956.19;5015653;28;20111;-82
2023/10/15 03:49:36;;;;;;;21.42;8.75;;;;;;;13.72;60.80;94949.69;5017176;28;20441;-82
2023/10/15 03:52:08;;;;;;;16.38;8.10;;;;;;;13.58;61.08;94932.91;5017758;28;20094;-82
2023/10/15 03:54:37;;;;;;;23.50;9.00;;;;;;;13.76;60.92;94961.31;5016531;28;20065;-82
2023/10/15 03:57:03;;;;;;;22.25;8.15;;;;;;;13.76;60.86;94956.00;5019369;28;20053;-82
2023/10/15 03:59:28;;;;;;;17.02;8.32;;;;;;;13.30;60.84;94875.44;5017102;28;20493;-82
2023/10/15 04:01:56;;;;;;;15.52;8.15;;;;;;;13.38;60.71;94877.41;5020002;28;20041;-82
2023/10/15 04:04:22;;;;;;;16.30;8.02;;;;;;;13.57;60.91;94933.22;5020647;28;20377;-82
2023/10/15 04:06:52;;;;;;;20.48;8.50;;;;;;;13.30;60.94;94884.22;5027831;28;20038;-82
2023/10/15 04:09:23;;;;;;;16.08;8.43;;;;;;;13.79;60.96;94951.97;5033097;28;20038;-81
2023/10/15 04:11:48;;;;;;;27.40;9.63;;;;;;;13.03;61.00;94847.72;5025898;28;20033;-82
2023/10/15 04:14:21;;;;;;;24.48;8.90;;;;;;;13.21;61.43;94875.34;5019326;28;20137;-82
2023/10/15 04:16:47;;;;;;;20.05;8.85;;;;;;;13.23;61.26;94875.03;5018493;28;20041;-82
2023/10/15 04:19:17;;;;;;;23.77;9.32;;;;;;;13.72;61.18;94955.03;5017838;28;20092;-82
2023/10/15 04:21:44;;;;;;;22.55;8.68;;;;;;;13.41;60.96;94896.25;5016530;28;20041;-82
2023/10/15 04:24:12;;;;;;;23.00;8.52;;;;;;;12.94;61.05;94817.53;5015789;28;20120;-82
2023/10/15 04:26:48;;;;;;;17.85;8.57;;;;;;;13.67;61.03;94944.47;5016750;28;20033;-82
2023/10/15 04:29:17;;;;;;;25.33;10.57;;;;;;;13.43;60.98;94909.25;5017139;28;20061;-82
2023/10/15 04:31:56;;;;;;;22.52;9.52;;;;;;;13.15;60.93;94865.88;5014767;28;20076;-82
2023/10/15 04:34:25;;;;;;;25.05;10.30;;;;;;;13.55;61.00;94928.19;5014298;28;20044;-82
2023/10/15 04:36:51;;;;;;;19.25;8.13;;;;;;;13.70;61.38;94948.41;5015162;28;20038;-81
2023/10/15 04:39:21;;;;;;;19.42;8.25;;;;;;;13.62;61.64;94960.56;5015065;28;20045;-82
2023/10/15 04:41:49;;;;;;;16.90;8.20;;;;;;;13.70;61.26;94959.06;5016437;28;20066;-82
2023/10/15 04:44:26;;;;;;;20.55;8.50;;;;;;;13.70;61.58;94959.06;5016089;28;20143;-82
2023/10/15 04:46:55;;;;;;;22.33;8.80;;;;;;;13.68;61.30;94963.91;5015015;28;20108;-82
2023/10/15 04:49:21;;;;;;;21.45;8.80;;;;;;;13.55;61.34;94933.53;5014678;28;20073;-82
2023/10/15 04:51:46;;;;;;;20.02;9.20;;;;;;;13.62;61.36;94963.22;5013323;28;20480;-82
2023/10/15 04:54:12;;;;;;;23.95;9.25;;;;;;;13.50;62.09;94954.94;5030693;28;20109;-82
2023/10/15 04:56:38;;;;;;;26.95;9.52;;;;;;;13.60;61.73;94959.25;5015330;28;20550;-82
2023/10/15 04:59:05;;;;;;;25.17;9.50;;;;;;;13.62;62.15;94955.22;5014945;28;20049;-82
2023/10/15 05:01:33;;;;;;;28.75;10.82;;;;;;;13.30;62.09;94918.84;5031140;28;20126;-82
2023/10/15 05:04:00;;;;;;;26.17;10.05;;;;;;;13.59;61.49;94955.81;5013795;28;20034;-82
2023/10/15 05:06:26;;;;;;;26.85;9.75;;;;;;;13.47;61.00;94945.66;5015954;28;20540;-82
2023/10/15 05:08:55;;;;;;;24.60;9.32;;;;;;;13.50;61.05;94955.72;5014832;28;20034;-83
2023/10/15 05:11:23;;;;;;;26.50;10.23;;;;;;;13.21;61.05;94907.28;5013911;28;20507;-82
2023/10/15 05:13:50;;;;;;;26.23;9.88;;;;;;;13.16;61.13;94891.41;5015649;28;20109;-81
2023/10/15 05:16:16;;;;;;;29.65;9.93;;;;;;;13.53;60.93;94938.34;5015808;28;20140;-82
2023/10/15 05:18:43;;;;;;;30.13;10.85;;;;;;;13.67;60.90;94957.00;5017276;28;20520;-82
2023/10/15 05:21:09;;;;;;;24.23;10.20;;;;;;;13.78;60.69;94971.69;5020890;28;20041;-82
2023/10/15 05:23:35;;;;;;;25.27;10.38;;;;;;;13.76;60.61;94976.53;5019780;28;20436;-82
2023/10/15 05:26:00;;;;;;;35.00;10.18;;;;;;;13.83;60.31;94982.25;5018732;28;20042;-82
2023/10/15 05:28:26;;;;;;;26.33;8.77;;;;;;;13.52;59.62;94939.44;5018797;28;20076;-82
2023/10/15 05:30:52;;;;;;;26.17;8.80;;;;;;;13.87;58.90;94980.56;5019042;28;20045;-82
2023/10/15 05:33:18;;;;;;;26.15;9.77;;;;;;;13.96;59.38;94972.66;5019003;28;20042;-82
2023/10/15 05:35:47;;;;;;;19.25;10.27;;;;;;;13.86;59.51;94963.78;5018444;28;20038;-82
2023/10/15 05:38:12;;;;;;;34.35;10.93;;;;;;;14.06;59.01;94981.22;5019191;28;20042;-82
2023/10/15 05:40:38;;;;;;;33.28;9.68;;;;;;;13.65;58.58;94914.69;5017627;28;20046;-82
2023/10/15 05:43:07;;;;;;;29.88;9.60;;;;;;;14.11;58.36;94972.34;5018380;28;20037;-81
2023/10/15 05:45:33;;;;;;;32.75;9.15;;;;;;;14.18;58.23;94962.84;5034694;28;20046;-82
2023/10/15 05:47:58;;;;;;;30.67;9.88;;;;;;;14.20;58.34;94959.84;5020543;28;20135;-82
2023/10/15 05:50:24;;;;;;;22.45;10.27;;;;;;;13.94;58.08;94929.53;5035321;28;20057;-82
2023/10/15 05:52:50;;;;;;;23.00;9.70;;;;;;;14.07;57.87;94945.47;5014974;28;20064;-76
2023/10/15 05:55:17;;;;;;;31.75;9.85;;;;;;;14.22;58.32;94947.78;5013230;28;20114;-77
2023/10/15 05:57:43;;;;;;;23.27;9.88;;;;;;;14.34;58.14;94970.50;5011731;28;20508;-76
2023/10/15 06:00:19;;;;;;;27.27;9.85;;;;;;;14.15;57.51;94926.09;5013042;28;20108;-76
2023/10/15 06:02:45;;;;;;;23.50;10.90;;;;;;;14.51;57.37;94975.97;5013501;28;20456;-76
2023/10/15 06:05:13;;;;;;;28.00;10.98;;;;;;;14.59;57.26;94978.72;5012802;28;20046;-77
2023/10/15 06:07:40;;;;;;;25.02;11.07;;;;;;;14.62;57.30;94975.44;5013982;28;20061;-76
2023/10/15 06:10:07;;;;;;;32.08;9.65;;;;;;;14.42;56.86;94943.13;5011553;28;20524;-76
2023/10/15 06:12:32;;;;;;;24.17;9.63;;;;;;;14.41;56.31;94953.00;5012196;28;20053;-76
2023/10/15 06:14:59;;;;;;;17.88;9.48;;;;;;;14.56;56.69;94957.19;5013887;28;20046;-76
2023/10/15 06:17:25;;;;;;;29.27;10.32;;;;;;;14.72;56.28;94978.97;5013992;28;20046;-77
2023/10/15 06:19:50;;;;;;;22.77;9.48;;;;;;;14.61;56.36;94959.75;5016134;28;20495;-77
2023/10/15 06:22:16;;;;;;;26.25;9.63;;;;;;;14.61;56.06;94944.50;5014622;28;20045;-76
2023/10/15 06:24:46;;;;;;;21.85;9.45;;;;;;;14.82;55.73;94957.34;5030843;28;20532;-76
2023/10/15 06:27:15;;;;;;;24.15;9.93;;;;;;;14.77;55.83;94942.25;5015427;28;20113;-77
2023/10/15 06:29:41;;;;;;;20.60;10.57;;;;;;;14.95;55.80;94959.19;5014221;28;20425;-76
2023/10/15 06:32:06;;;;;;;23.10;10.15;;;;;;;14.80;55.97;94930.97;5016121;28;20049;-76
2023/10/15 06:34:32;;;;;;;23.35;10.25;;;;;;;14.87;56.03;94957.25;5015595;28;20067;-76
2023/10/15 06:36:58;;;;;;;22.17;10.77;;;;;;;14.74;56.06;94921.50;5015519;28;20056;-77
2023/10/15 06:39:23;;;;;;;25.67;10.90;;;;;;;14.91;56.07;94932.28;5017915;28;20045;-76
2023/10/15 06:41:49;;;;;;;21.50;10.77;;;;;;;14.93;55.90;94932.00;5017386;28;20053;-76
2023/10/15 06:44:15;;;;;;;30.98;11.90;;;;;;;14.77;55.42;94896.88;5018387;28;20145;-76
2023/10/15 06:46:41;;;;;;;20.73;11.02;;;;;;;15.01;55.48;94947.28;5017336;28;20038;-77
2023/10/15 06:49:07;;;;;;;30.40;12.27;;;;;;;14.80;55.34;94903.50;5018962;28;20108;-76
2023/10/15 06:51:34;;;;;;;25.70;11.43;;;;;;;15.19;54.91;94953.47;5028589;28;20044;-76
2023/10/15 06:54:00;;;;;;;19.20;10.52;;;;;;;15.02;54.98;94920.25;5031734;28;20073;-76
2023/10/15 06:56:25;;;;;;;22.77;12.20;;;;;;;15.25;54.91;94947.72;5030734;28;20041;-77
2023/10/15 06:58:51;;;;;;;22.80;10.82;;;;;;;15.29;54.86;94942.53;5031632;28;20052;-77
2023/10/15 07:01:16;;;;;;;22.80;10.93;;;;;;;15.00;55.50;94901.09;5028512;28;20042;-79
2023/10/15 07:03:42;;;;;;;26.63;11.40;;;;;;;14.87;55.09;94864.59;5024048;28;20127;-79
2023/10/15 07:06:08;;;;;;;28.15;11.05;;;;;;;15.26;54.65;94900.38;5033303;28;20065;-77
2023/10/15 07:08:34;;;;;;;32.05;10.60;;;;;;;15.42;54.49;94926.38;5026886;28;20105;-77
2023/10/15 07:11:00;;;;;;;27.75;11.85;;;;;;;15.34;54.79;94919.13;5023419;28;20473;-76
2023/10/15 07:13:26;;;;;;;32.08;10.98;;;;;;;15.16;54.66;94876.63;5022119;28;20045;-77
2023/10/15 07:15:52;;;;;;;23.33;10.40;;;;;;;15.62;54.30;94929.63;5022254;28;20037;-76
2023/10/15 07:18:18;;;;;;;23.35;10.90;;;;;;;14.96;54.43;94837.91;5024581;28;20108;-78
2023/10/15 07:20:43;;;;;;;30.83;12.20;;;;;;;15.37;54.18;94886.44;5026834;28;20133;-77
2023/10/15 07:23:09;;;;;;;26.75;10.70;;;;;;;15.65;53.78;94921.75;5026511;28;20611;-77
2023/10/15 07:25:35;;;;;;;27.13;10.25;;;;;;;15.33;54.15;94847.31;5024979;28;20045;-76
2023/10/15 07:28:01;;;;;;;22.58;10.52;;;;;;;15.81;53.66;94914.09;5025381;28;20046;-77
2023/10/15 07:30:27;;;;;;;28.25;9.32;;;;;;;15.35;53.54;94826.38;5023608;28;20092;-76
2023/10/15 07:32:59;;;;;;;35.53;10.95;;;;;;;15.92;53.13;94910.03;5024894;28;20069;-78
2023/10/15 07:35:27;;;;;;;30.58;9.00;;;;;;;15.79;53.24;94881.53;5023617;28;20045;-76
2023/10/15 07:37:53;;;;;;;24.42;10.68;;;;;;;15.70;53.30;94884.19;5024991;28;20496;-77
2023/10/15 07:40:26;;;;;;;20.40;10.48;;;;;;;15.90;53.96;94911.44;5026905;28;20045;-76
2023/10/15 07:42:59;;;;;;;25.73;10.73;;;;;;;15.88;53.74;94911.72;5030735;28;20092;-79
2023/10/15 07:45:29;;;;;;;26.60;10.40;;;;;;;15.82;53.45;94896.94;5033105;28;20045;-78
2023/10/15 07:47:59;;;;;;;21.38;9.15;;;;;;;15.60;53.39;94855.09;5027321;28;20106;-77
2023/10/15 07:50:25;;;;;;;25.02;9.07;;;;;;;15.83;52.72;94861.88;5025335;28;20034;-77
2023/10/15 07:52:52;;;;;;;19.58;9.77;;;;;;;15.94;52.90;94862.38;5041904;28;20038;-77
2023/10/15 07:55:18;;;;;;;21.45;9.00;;;;;;;15.64;52.35;94818.59;5025409;28;20022;-77
2023/10/15 07:57:44;;;;;;;17.65;8.50;;;;;;;15.79;52.82;94841.44;5026011;28;20041;-77
2023/10/15 08:00:16;;;;;;;15.43;7.82;;;;;;;16.04;52.40;94866.59;5023296;28;20444;-76
2023/10/15 08:02:49;;;;;;;18.25;7.63;;;;;;;16.33;52.03;94890.81;5041017;28;20095;-77
2023/10/15 08:05:15;;;;;;;19.67;8.35;;;;;;;16.05;52.10;94854.78;5026497;28;20051;-77
2023/10/15 08:07:43;;;;;;;25.50;8.18;;;;;;;16.05;51.69;94847.56;5025157;28;20034;-77
2023/10/15 08:10:09;;;;;;;21.48;8.35;;;;;;;16.17;51.83;94853.03;5025659;28;20069;-76
2023/10/15 08:12:36;;;;;;;23.40;8.75;;;;;;;16.49;51.28;94883.09;5022647;28;20115;-78
2023/10/15 08:15:01;;;;;;;21.95;7.65;;;;;;;16.34;51.21;94836.19;5020427;28;20109;-78
2023/10/15 08:17:29;;;;;;;14.13;7.07;;;;;;;16.46;50.96;94824.84;5021515;28;20401;-77
2023/10/15 08:19:55;;;;;;;24.05;7.65;;;;;;;16.57;50.88;94853.63;5024130;28;20042;-77
2023/10/15 08:22:20;;;;;;;18.38;6.53;;;;;;;16.57;50.64;94850.16;5021665;28;20042;-77
2023/10/15 08:24:46;;;;;;;15.68;7.25;;;;;;;16.55;50.67;94847.03;5021615;28;20102;-76
2023/10/15 08:27:13;;;;;;;25.45;8.15;;;;;;;16.72;50.79;94851.56;5020896;28;20580;-77
2023/10/15 08:29:41;;;;;;;26.23;7.63;;;;;;;16.67;50.83;94838.34;5004278;28;20029;-77
2023/10/15 08:32:09;;;;;;;30.70;7.90;;;;;;;16.95;50.58;94867.09;5024110;28;20038;-77
2023/10/15 08:34:34;;;;;;;12.63;6.97;;;;;;;16.71;50.47;94826.69;5021336;28;20042;-77
2023/10/15 08:37:00;;;;;;;17.33;7.82;;;;;;;16.63;50.25;94813.34;5019542;28;20045;-77
2023/10/15 08:39:27;;;;;;;23.55;8.13;;;;;;;17.10;50.38;94863.09;5021487;28;20061;-77
2023/10/15 08:41:54;;;;;;;29.08;7.30;;;;;;;16.89;50.37;94835.44;5018853;28;20038;-77
2023/10/15 08:44:20;;;;;;;23.67;8.45;;;;;;;17.04;50.18;94842.94;5038781;28;20042;-77
2023/10/15 08:46:49;;;;;;;28.08;9.20;;;;;;;17.04;50.27;94834.13;5023021;28;20069;-77
2023/10/15 08:49:15;;;;;;;17.58;8.38;;;;;;;17.21;49.82;94860.84;5022626;28;20463;-77
2023/10/15 08:51:43;;;;;;;27.08;8.55;;;;;;;17.21;49.77;94848.25;5025976;28;20072;-77
2023/10/15 08:54:11;;;;;;;20.00;8.50;;;;;;;17.08;49.72;94813.63;5019190;28;20033;-76
2023/10/15 08:56:38;;;;;;;22.38;8.00;;;;;;;17.29;49.64;94834.00;5023738;28;20042;-77
2023/10/15 08:59:04;;;;;;;21.25;8.45;;;;;;;17.31;49.30;94823.75;5023074;28;20053;-77
2023/10/15 09:01:34;;;;;;;22.88;8.10;;;;;;;17.26;49.26;94796.34;5020703;28;20034;-77
2023/10/15 09:04:00;;;;;;;14.88;7.80;;;;;;;17.65;49.30;94838.06;5024971;28;20046;-77
2023/10/15 09:06:26;;;;;;;19.92;8.02;;;;;;;17.51;49.17;94811.50;5024727;28;20050;-76
2023/10/15 09:08:52;;;;;;;21.55;7.45;;;;;;;17.80;49.11;94837.50;5021506;28;20125;-77
2023/10/15 09:11:19;;;;;;;14.35;7.25;;;;;;;17.53;48.79;94779.00;5023186;28;20053;-77
2023/10/15 09:13:52;;;;;;;18.88;7.47;;;;;;;17.91;48.67;94830.66;5020875;28;20037;-77
2023/10/15 09:16:20;;;;;;;15.35;7.57;;;;;;;17.89;48.93;94810.63;5021570;28;20034;-77
2023/10/15 09:18:46;;;;;;;18.52;7.55;;;;;;;17.76;49.00;94774.13;5003840;28;20080;-77
2023/10/15 09:21:23;;;;;;;18.52;8.07;;;;;;;18.04;48.98;94801.97;5020472;28;20125;-81
2023/10/15 09:23:50;;;;;;;20.75;7.50;;;;;;;18.27;48.78;94816.59;5014459;28;20461;-82
2023/10/15 09:26:17;;;;;;;21.10;6.78;;;;;;;18.06;48.51;94775.59;5017466;28;20488;-82
2023/10/15 09:28:43;;;;;;;20.83;7.55;;;;;;;18.02;48.34;94772.00;5014507;28;20053;-82
2023/10/15 09:31:10;;;;;;;26.42;6.10;;;;;;;18.41;48.30;94814.41;5016346;28;20073;-82
2023/10/15 09:33:36;;;;;;;21.42;6.63;;;;;;;18.17;48.39;94765.22;5015662;28;20057;-82
2023/10/15 09:36:03;;;;;;;20.27;6.78;;;;;;;18.62;48.28;94808.19;5017050;28;20072;-82
2023/10/15 09:38:31;;;;;;;18.42;6.32;;;;;;;18.51;48.21;94780.97;5014593;28;20053;-81
2023/10/15 09:40:58;;;;;;;18.33;6.82;;;;;;;18.49;47.77;94775.94;5019290;28;20054;-81
2023/10/15 09:43:28;;;;;;;13.88;6.13;;;;;;;18.73;47.71;94807.47;5019082;28;20125;-82
2023/10/15 09:45:54;;;;;;;19.38;6.32;;;;;;;18.41;47.84;94730.38;5018716;28;20054;-81
2023/10/15 09:48:24;;;;;;;19.90;6.57;;;;;;;18.76;47.58;94761.13;5033363;28;20037;-82
2023/10/15 09:50:52;;;;;;;16.80;6.05;;;;;;;19.56;46.94;94787.44;5018151;28;20045;-82
2023/10/15 09:53:21;;;;;;;14.98;5.82;;;;;;;20.23;44.29;94761.63;5016657;28;20042;-82
2023/10/15 09:55:48;;;;;;;20.38;7.00;;;;;;;21.26;42.25;94766.97;5018225;28;20046;-82
2023/10/15 09:58:15;;;;;;;11.65;5.50;;;;;;;22.11;40.35;94726.38;5016797;28;20487;-82
2023/10/15 10:03:37;;;;;;;16.77;6.07;;;;;;;24.19;37.03;94771.34;5021214;28;20145;-82
2023/10/15 10:06:11;;;;;;;18.15;6.72;;;;;;;25.01;35.23;94766.03;5017152;28;20619;-82
2023/10/15 10:09:16;;;;;;;28.80;9.90;;;;;;;24.96;34.67;94732.66;5019782;28;20125;-82
2023/10/15 10:12:06;;;;;;;17.23;5.93;;;;;;;25.81;33.77;94769.69;5020549;28;20104;-83
2023/10/15 10:14:33;;;;;;;15.53;6.17;;;;;;;26.42;32.75;94768.81;5022021;28;20042;-83
2023/10/15 10:17:00;;;;;;;17.73;5.93;;;;;;;27.12;31.71;94753.81;5020588;28;20050;-82
2023/10/15 10:19:27;;;;;;;27.45;6.38;;;;;;;27.35;31.69;94739.78;5019624;28;20046;-82
2023/10/15 10:21:53;;;;;;;13.18;5.53;;;;;;;27.25;30.73;94708.69;5026989;28;20094;-81
2023/10/15 10:24:19;;;;;;;15.48;5.90;;;;;;;27.83;30.54;94697.31;5025548;28;20137;-82
2023/10/15 10:26:55;;;;;;;12.10;5.38;;;;;;;28.21;29.52;94698.34;5032324;28;20067;-82
2023/10/15 10:29:25;;;;;;;19.58;5.68;;;;;;;27.54;30.38;94698.56;5035081;28;20042;-82
2023/10/15 10:31:54;;;;;;;13.27;5.40;;;;;;;27.57;30.16;94686.88;5028753;28;20099;-80
2023/10/15 10:34:29;;;;;;;17.48;5.53;;;;;;;27.55;30.25;94684.53;5009126;28;20516;-78
2023/10/15 10:36:55;;;;;;;13.75;5.25;;;;;;;27.65;30.12;94721.09;5021336;28;20401;-78
2023/10/15 10:39:22;;;;;;;15.93;5.13;;;;;;;26.84;30.39;94605.69;5021314;28;20073;-78
2023/10/15 10:41:59;;;;;;;22.85;5.63;;;;;;;27.45;30.57;94692.72;5023487;28;20049;-78
2023/10/15 10:44:24;;;;;;;17.70;5.90;;;;;;;27.79;30.11;94693.03;5030198;28;20049;-78
2023/10/15 10:46:52;;;;;;;20.83;6.30;;;;;;;28.15;30.01;94691.72;5031904;28;20041;-78
2023/10/15 10:49:28;;;;;;;16.08;5.47;;;;;;;27.97;29.58;94680.88;5039437;28;20038;-78
2023/10/15 10:52:17;;;;;;;13.10;4.57;;;;;;;27.68;29.14;94630.41;5021818;28;20041;-79
2023/10/15 10:54:45;;;;;;;13.23;4.68;;;;;;;26.97;29.00;94531.84;5022852;28;20524;-77
2023/10/15 10:57:11;;;;;;;15.88;5.40;;;;;;;27.28;28.80;94577.25;5018932;28;20057;-78
2023/10/15 10:59:38;;;;;;;10.90;4.50;;;;;;;27.73;29.26;94681.75;5020489;28;20045;-77
2023/10/15 11:02:05;;;;;;;16.20;5.63;;;;;;;27.68;28.60;94648.72;5021456;28;20543;-78
2023/10/15 11:04:31;;;;;;;16.13;5.15;;;;;;;27.47;29.47;94652.22;5020156;28;20045;-78
2023/10/15 11:06:58;;;;;;;14.00;5.20;;;;;;;27.46;29.04;94665.09;5020323;28;20065;-77
2023/10/15 11:09:24;;;;;;;17.38;5.15;;;;;;;26.79;30.54;94637.94;5016599;28;20128;-78
2023/10/15 11:11:52;;;;;;;15.40;5.57;;;;;;;27.08;30.21;94658.53;5021653;28;20100;-78
2023/10/15 11:14:23;;;;;;;12.43;4.30;;;;;;;26.73;30.19;94634.06;5019705;28;20041;-77
2023/10/15 11:16:50;;;;;;;12.23;5.00;;;;;;;26.73;29.78;94607.63;5017774;28;20049;-77
2023/10/15 11:19:21;;;;;;;13.10;5.10;;;;;;;26.82;29.80;94624.34;5019207;28;20038;-78
2023/10/15 11:21:48;;;;;;;13.38;4.68;;;;;;;26.69;29.56;94563.38;5021239;28;20038;-78
2023/10/15 11:24:14;;;;;;;22.02;5.53;;;;;;;27.34;29.41;94608.31;5020881;28;20042;-78
2023/10/15 11:26:44;;;;;;;9.80;5.10;;;;;;;27.47;28.94;94652.22;5018128;28;20132;-78
2023/10/15 11:29:14;;;;;;;10.38;4.35;;;;;;;27.48;28.80;94621.09;5019374;28;20042;-77
2023/10/15 11:31:44;;;;;;;15.52;4.75;;;;;;;27.59;28.69;94628.13;5023063;28;20037;-77
2023/10/15 11:34:17;;;;;;;12.88;4.80;;;;;;;27.39;29.02;94594.28;5019644;28;20107;-77
2023/10/15 11:36:44;;;;;;;13.43;4.70;;;;;;;27.35;29.40;94628.16;5019021;28;20037;-78
2023/10/15 11:41:58;;;;;;;13.48;4.28;;;;;;;27.42;29.01;94636.31;5020826;28;20057;-77
2023/10/15 11:44:31;;;;;;;17.92;4.88;;;;;;;27.48;29.54;94632.78;5018772;28;20042;-78
2023/10/15 11:46:57;;;;;;;12.55;5.30;;;;;;;27.49;29.05;94609.81;5019534;28;20030;-77
2023/10/15 11:49:25;;;;;;;12.05;4.72;;;;;;;27.47;28.84;94574.03;5020145;28;20129;-78
2023/10/15 11:51:58;;;;;;;11.02;5.00;;;;;;;27.80;28.12;94580.16;5037647;28;20046;-79
2023/10/15 11:54:28;;;;;;;10.93;4.10;;;;;;;28.10;28.16;94621.25;5020342;28;20133;-78